METAR Data
IDs: Format: Raw Decoded Include TAF

Data at: 1206 UTC 16 Oct 2018

PAMO 161202Z AUTO 04011KT 10SM BKN100 01/M01 A2914 RMK AO2 SLP872 7//// T00111006 10028 20011 55007 FZRANO
PAMO 161102Z AUTO 05010KT 10SM CLR 01/M01 A2913 RMK AO2 SLP870 T00111006 FZRANO
PAMO 161002Z AUTO 06016KT 10SM CLR 02/00 A2913 RMK AO2 SLP870 T00170000 FZRANO
PAMO 160902Z AUTO 07016KT 10SM CLR 02/01 A2915 RMK AO2 SLP874 60000 T00220006 55006 FZRANO
PAMO 160802Z AUTO 04013KT 10SM FEW070 02/01 A2915 RMK AO2 SLP877 T00220011 400220022 FZRANO
PAMO 160702Z AUTO 07016KT 10SM BKN065 03/01 A2915 RMK AO2 SLP875 T00280011
PAMO 160602Z AUTO 07019KT 10SM FEW100 03/02 A2916 RMK AO2 SLP878 6//// T00280017 10044 20028 56011
PAMO 160502Z AUTO 09016KT 10SM BKN100 03/02 A2917 RMK AO2 SLP882 T00330017
PAMO 160402Z AUTO 08018G24KT 10SM SCT036 OVC043 04/02 A2918 RMK AO2 RAB0326E0356 SLP886 P0000 T00390022
PAMO 160302Z AUTO 08022KT 10SM OVC036 04/02 A2919 RMK AO2 PK WND 08027/0241 SLP889 6//// T00390017 56010
PAMO 160202Z AUTO 08021G27KT 10SM OVC032 04/02 A2920 RMK AO2 PK WND 09030/0020 RAB01000109E01000144B0101E0129 SLP895 T00440022
PAMO 160112Z AUTO 09019G24KT 10SM -RA BKN030 OVC055 04/03 A2921 RMK AO2 PK WND 09030/0020 RAB0009E0044B01
PAMO 160102Z AUTO 09019G26KT 2 1/2SM -RA BR BKN028 OVC060 04/03 A2922 RMK AO2 PK WND 09030/0020 RAB0009E0044B01
PAMO 160002Z AUTO 10SM OVC050 04/02 A2924 RMK AO2 RAE2314 SLP905 P0000 60001 T00440022 10044 20028 56017 $
PAMO 152302Z AUTO 10SM -RA FEW049 OVC060 04/03 A2926 RMK AO2 RAB2225 SLP914 P0000 T00440028 $
PAMO 152202Z AUTO 10SM BKN060 OVC100 04/02 A2927 RMK AO2 SLP918 T00390022 $
PAMO 152102Z AUTO 10SM OVC060 04/03 A2929 RMK AO2 SLP923 60002 T00390028 56015 $
PAMO 152002Z AUTO 10SM BKN048 OVC060 03/02 A2931 RMK AO2 RAE1923 SLP930 P0000 T00330022 $
PAMO 151902Z AUTO 10SM -RA BKN039 OVC060 03/02 A2932 RMK AO2 UPB1851E1858 SLP934 P0001 T00280017 $
PAMO 151802Z AUTO 9SM -RA SCT048 OVC060 03/02 A2934 RMK AO2 SLP941 P0001 60001 T00280017 10050 20028 56013 $
PAMO 151702Z AUTO 10SM -RA OVC043 03/01 A2936 RMK AO2 RAB1607 SLP946 P0000 T00330011 $
PAMO 151602Z AUTO 10SM FEW042 BKN050 OVC070 04/01 A2937 RMK AO2 SLP951 T00390006 $
PAMO 151502Z AUTO 10SM OVC060 04/00 A2938 RMK AO2 SLP954 T00440000 58023 $
PAMO 151402Z AUTO 10SM SCT120 04/00 A2940 RMK AO2 SLP959 T00440000 $
PAMO 151302Z AUTO 10SM OVC110 04/01 A2943 RMK AO2 SLP972 T00440006 $
PAMO 151202Z AUTO 10SM OVC120 05/01 A2945 RMK AO2 SLP978 T00500006 10050 20033 58020 $
PAMO 151102Z AUTO 10SM CLR 05/01 A2947 RMK AO2 SLP982 T00500006 $
PAMO 151002Z AUTO 10SM CLR 04/01 A2949 RMK AO2 SLP992 T00440011 $
PAMO 150902Z AUTO 10SM FEW120 05/02 A2951 RMK AO2 SLP999 T00500017 57010 $
PAMO 150802Z AUTO 10SM FEW120 04/02 A2953 RMK AO2 SLP004 T00440022 400440044 $
PAMO 150702Z AUTO 10SM CLR 04/02 A2954 RMK AO2 SLP006 T00390022 $
PAMO 150602Z AUTO 10SM CLR 04/02 A2955 RMK AO2 SLP010 T00390022 10089 20039 56005 $
PAMO 150502Z AUTO 10SM CLR 04/03 A2956 RMK AO2 SLP014 T00440028 $
PAMO 150402Z AUTO 10SM CLR 05/03 A2956 RMK AO2 SLP017 T00500028 $
PAMO 150302Z AUTO 10SM CLR 06/03 A2956 RMK AO2 SLP016 T00610033 56012 $
PAMO 150202Z AUTO 10SM CLR 07/03 A2957 RMK AO2 SLP020 T00670033 $
PAMO 150102Z AUTO 10SM BKN090 08/03 A2958 RMK AO2 SLP020 T00830033 $